Time;durP1;ratioP1;P1;durP2;ratioP2;P2;SDS_P1;SDS_P2;PMS_P1;PMS_P2;Temp;Humidity;BMP_temperature;BMP_pressure;BME280_temperature;BME280_humidity;BME280_pressure;Samples;Min_cycle;Max_cycle;Signal;HPM_P1;HPM_P2
2021/03/01 00:01:16;;;;;;;69.60;13.35;;;3.40;99.90;;;;;;4716083;30;20047;-80
2021/03/01 00:03:42;;;;;;;81.95;13.90;;;3.40;99.90;;;;;;4733193;30;20056;-80
2021/03/01 00:06:08;;;;;;;215.50;16.58;;;3.50;99.90;;;;;;4720573;30;20056;-80
2021/03/01 00:08:33;;;;;;;329.42;19.45;;;3.50;99.90;;;;;;4728818;30;20135;-80
2021/03/01 00:10:59;;;;;;;80.28;13.75;;;3.50;99.90;;;;;;4729532;30;20151;-80
2021/03/01 00:13:25;;;;;;;31.73;13.07;;;3.50;99.90;;;;;;4716328;30;20139;-80
2021/03/01 00:15:52;;;;;;;245.57;16.80;;;3.50;99.90;;;;;;4734417;30;20152;-80
2021/03/01 00:18:19;;;;;;;59.08;13.32;;;3.50;99.90;;;;;;4722997;30;20047;-80
2021/03/01 00:20:45;;;;;;;70.63;13.02;;;3.40;99.90;;;;;;4733087;30;20044;-80
2021/03/01 00:23:11;;;;;;;51.63;12.18;;;3.40;99.90;;;;;;4732317;30;20049;-80
2021/03/01 00:25:38;;;;;;;101.03;12.45;;;3.30;99.90;;;;;;4700770;30;20649;-80
2021/03/01 00:28:06;;;;;;;149.25;13.75;;;3.40;99.90;;;;;;4734184;30;20044;-80
2021/03/01 00:30:31;;;;;;;72.03;10.35;;;3.40;99.90;;;;;;4731587;30;20048;-80
2021/03/01 00:32:57;;;;;;;38.95;11.45;;;3.40;99.90;;;;;;4715945;30;20532;-80
2021/03/01 00:35:23;;;;;;;174.77;14.82;;;3.30;99.90;;;;;;4727549;30;20081;-80
2021/03/01 00:37:49;;;;;;;151.75;11.98;;;3.30;99.90;;;;;;4701370;30;20060;-80
2021/03/01 00:40:15;;;;;;;262.70;14.13;;;3.30;99.90;;;;;;4737948;30;20044;-80
2021/03/01 00:42:40;;;;;;;246.43;14.75;;;3.20;99.90;;;;;;4715902;30;20678;-80
2021/03/01 00:45:07;;;;;;;140.48;13.57;;;3.20;99.90;;;;;;4720157;30;20107;-80
2021/03/01 00:47:33;;;;;;;202.02;12.90;;;3.20;99.90;;;;;;4725869;30;20052;-79
2021/03/01 00:49:59;;;;;;;259.27;15.55;;;3.20;99.90;;;;;;4719518;30;20790;-80
2021/03/01 00:52:25;;;;;;;126.30;13.35;;;3.20;99.90;;;;;;4732858;30;20057;-80
2021/03/01 00:54:51;;;;;;;105.38;12.32;;;3.20;99.90;;;;;;4721183;30;20080;-79
2021/03/01 00:57:17;;;;;;;67.47;13.30;;;3.30;99.90;;;;;;4717874;30;20474;-80
2021/03/01 00:59:43;;;;;;;92.25;13.27;;;3.30;99.90;;;;;;4712475;30;20102;-80
2021/03/01 01:02:09;;;;;;;117.95;12.82;;;3.30;99.90;;;;;;4709664;30;20536;-80
2021/03/01 01:04:34;;;;;;;237.85;11.55;;;3.30;99.90;;;;;;4713433;30;20055;-79
2021/03/01 01:07:00;;;;;;;278.58;13.55;;;3.20;99.90;;;;;;4713206;30;20068;-80
2021/03/01 01:09:26;;;;;;;197.07;11.73;;;3.20;99.90;;;;;;4712145;30;21409;-79
2021/03/01 01:11:51;;;;;;;194.13;12.10;;;3.10;99.90;;;;;;4716656;30;20429;-80
2021/03/01 01:14:17;;;;;;;221.02;12.25;;;3.10;99.90;;;;;;4713919;30;20160;-80
2021/03/01 01:16:43;;;;;;;283.45;13.68;;;3.00;99.90;;;;;;4712890;30;20057;-80
2021/03/01 01:19:09;;;;;;;254.30;12.88;;;3.00;99.90;;;;;;4711415;30;20056;-80
2021/03/01 01:21:35;;;;;;;257.63;13.13;;;3.00;99.90;;;;;;4712759;30;20063;-80
2021/03/01 01:24:01;;;;;;;142.68;10.77;;;3.00;99.90;;;;;;4712278;30;20052;-80
2021/03/01 01:26:27;;;;;;;145.38;11.38;;;3.00;99.90;;;;;;4736166;30;20060;-80
2021/03/01 01:28:52;;;;;;;25.23;10.35;;;3.00;99.90;;;;;;4717738;30;20049;-80
2021/03/01 01:31:18;;;;;;;32.90;10.23;;;3.00;99.90;;;;;;4711144;30;20139;-80
2021/03/01 01:33:44;;;;;;;174.23;10.70;;;3.00;99.90;;;;;;4730694;30;20069;-79
2021/03/01 01:36:10;;;;;;;263.77;12.20;;;3.00;99.90;;;;;;4733823;30;20044;-80
2021/03/01 01:38:35;;;;;;;236.75;13.23;;;3.00;99.90;;;;;;4714488;30;20048;-80
2021/03/01 01:41:01;;;;;;;76.13;11.15;;;3.00;99.90;;;;;;4716291;30;20076;-80
2021/03/01 01:43:27;;;;;;;53.00;10.95;;;3.00;99.90;;;;;;4721012;30;20048;-80
2021/03/01 01:45:53;;;;;;;26.85;9.60;;;3.00;99.90;;;;;;4716878;30;20533;-80
2021/03/01 01:48:18;;;;;;;48.97;10.13;;;3.10;99.90;;;;;;4718599;30;20060;-80
2021/03/01 01:50:44;;;;;;;195.57;12.23;;;3.10;99.90;;;;;;4732423;30;20481;-80
2021/03/01 01:53:10;;;;;;;19.20;10.65;;;3.10;99.90;;;;;;4714909;30;20040;-80
2021/03/01 01:55:37;;;;;;;274.30;13.30;;;3.10;99.90;;;;;;4722425;30;20080;-80
2021/03/01 01:58:03;;;;;;;27.70;11.95;;;3.20;99.90;;;;;;4714666;30;20098;-80
2021/03/01 02:00:45;;;;;;;90.65;11.45;;;3.10;99.90;;;;;;4715283;30;20096;-80
2021/03/01 02:03:33;;;;;;;60.17;12.70;;;3.10;99.90;;;;;;4730096;30;20057;-80
2021/03/01 02:06:30;;;;;;;38.00;12.57;;;3.10;99.90;;;;;;4719398;30;20048;-80
2021/03/01 02:09:12;;;;;;;153.57;12.82;;;3.10;99.90;;;;;;4730191;30;20150;-80
2021/03/01 02:12:07;;;;;;;78.00;12.18;;;3.10;99.90;;;;;;4720347;30;20490;-80
2021/03/01 02:15:02;;;;;;;42.33;10.68;;;3.20;99.90;;;;;;4732670;30;20482;-80
2021/03/01 02:17:28;;;;;;;300.42;12.40;;;3.20;99.90;;;;;;4737171;30;20053;-80
2021/03/01 02:19:53;;;;;;;52.53;12.00;;;3.00;99.90;;;;;;4721672;30;20105;-80
2021/03/01 02:22:20;;;;;;;61.85;10.35;;;3.10;99.90;;;;;;4736228;30;20045;-80
2021/03/01 02:24:54;;;;;;;94.88;10.32;;;3.10;99.90;;;;;;4731717;30;20135;-80
2021/03/01 02:27:28;;;;;;;218.75;10.65;;;3.10;99.90;;;;;;4718093;30;20489;-80
2021/03/01 02:30:00;;;;;;;31.15;9.45;;;3.00;99.90;;;;;;4713491;30;20138;-80
2021/03/01 02:32:30;;;;;;;16.77;8.50;;;3.00;99.90;;;;;;4715470;30;20056;-80
2021/03/01 02:34:57;;;;;;;15.07;8.77;;;3.10;99.90;;;;;;4732464;30;20048;-79
2021/03/01 02:37:26;;;;;;;37.95;8.52;;;3.10;99.90;;;;;;4728777;30;20044;-79
2021/03/01 02:39:53;;;;;;;116.60;9.65;;;3.10;99.90;;;;;;4731120;30;20132;-80
2021/03/01 02:42:25;;;;;;;13.95;8.90;;;3.10;99.90;;;;;;4735425;30;20048;-80
2021/03/01 02:44:55;;;;;;;17.98;8.20;;;3.10;99.90;;;;;;4730379;30;20478;-80
2021/03/01 02:47:23;;;;;;;20.67;7.97;;;3.10;99.90;;;;;;4713837;30;20040;-79
2021/03/01 02:49:51;;;;;;;18.55;8.35;;;3.00;99.90;;;;;;4730976;30;20052;-80
2021/03/01 02:52:18;;;;;;;14.25;8.73;;;3.00;99.90;;;;;;4715601;30;20135;-80
2021/03/01 02:54:44;;;;;;;19.23;9.30;;;3.00;99.90;;;;;;4727077;30;20743;-80
2021/03/01 02:57:12;;;;;;;41.90;9.25;;;3.10;99.90;;;;;;4732294;30;20053;-79
2021/03/01 02:59:38;;;;;;;28.50;9.07;;;3.00;99.90;;;;;;4731131;30;20045;-80
2021/03/01 03:02:05;;;;;;;15.88;8.90;;;3.00;99.90;;;;;;4717432;30;20052;-80
2021/03/01 03:04:33;;;;;;;14.20;8.80;;;3.30;99.90;;;;;;4714919;30;20398;-80
2021/03/01 03:07:02;;;;;;;12.77;8.35;;;3.00;99.90;;;;;;4706116;30;20049;-80
2021/03/01 03:09:28;;;;;;;13.52;8.38;;;3.00;99.90;;;;;;4723145;30;20067;-80
2021/03/01 03:11:56;;;;;;;13.43;8.35;;;3.00;99.90;;;;;;4714060;30;20828;-80
2021/03/01 03:14:26;;;;;;;17.52;9.55;;;3.10;99.90;;;;;;4715396;30;20099;-79
2021/03/01 03:16:56;;;;;;;18.02;9.80;;;3.10;99.90;;;;;;4719839;30;20059;-80
2021/03/01 03:19:22;;;;;;;22.42;9.43;;;3.10;99.90;;;;;;4712257;30;20056;-79
2021/03/01 03:21:48;;;;;;;16.92;10.20;;;3.10;99.90;;;;;;4700133;30;20473;-79
2021/03/01 03:24:14;;;;;;;31.40;11.05;;;3.10;99.90;;;;;;4729361;30;20127;-80
2021/03/01 03:26:40;;;;;;;65.22;12.90;;;3.10;99.90;;;;;;4736828;30;20427;-79
2021/03/01 03:29:06;;;;;;;68.07;11.73;;;3.10;99.90;;;;;;4736434;30;20057;-80
2021/03/01 03:31:32;;;;;;;25.75;12.23;;;3.10;99.90;;;;;;4733060;30;20089;-80
2021/03/01 03:33:58;;;;;;;38.03;12.55;;;3.10;99.90;;;;;;4712696;30;20044;-80
2021/03/01 03:36:29;;;;;;;29.42;12.73;;;3.10;99.90;;;;;;4727788;30;20097;-80
2021/03/01 03:38:59;;;;;;;31.08;12.75;;;3.10;99.90;;;;;;4714497;30;20045;-80
2021/03/01 03:41:26;;;;;;;52.10;12.35;;;3.10;99.90;;;;;;4716943;30;20080;-80
2021/03/01 03:43:53;;;;;;;44.03;14.15;;;3.00;99.90;;;;;;4735784;30;20127;-80
2021/03/01 03:46:19;;;;;;;45.50;14.45;;;3.10;99.90;;;;;;4714402;30;20497;-80
2021/03/01 03:48:50;;;;;;;107.25;13.77;;;3.10;99.90;;;;;;4713885;30;20052;-79
2021/03/01 03:51:19;;;;;;;74.70;13.85;;;3.10;99.90;;;;;;4728330;30;20484;-80
2021/03/01 03:53:53;;;;;;;76.95;15.95;;;3.10;99.90;;;;;;4731947;30;20067;-79
2021/03/01 03:56:26;;;;;;;61.60;14.98;;;3.10;99.90;;;;;;4734247;30;21335;-80
2021/03/01 03:58:58;;;;;;;36.42;15.35;;;3.10;99.90;;;;;;4730694;30;20056;-80
2021/03/01 04:01:27;;;;;;;45.45;14.95;;;3.20;99.90;;;;;;4731947;30;20132;-79
2021/03/01 04:03:57;;;;;;;59.13;15.70;;;3.20;99.90;;;;;;4699343;30;20052;-79
2021/03/01 04:06:23;;;;;;;98.57;16.85;;;3.20;99.90;;;;;;4729560;30;20128;-80
2021/03/01 04:08:52;;;;;;;60.63;15.27;;;3.20;99.90;;;;;;4712259;30;20083;-80
2021/03/01 04:11:21;;;;;;;70.07;12.57;;;3.20;99.90;;;;;;4720290;30;20058;-80
2021/03/01 04:13:50;;;;;;;38.30;12.10;;;3.10;99.90;;;;;;4710221;30;20040;-80
2021/03/01 04:16:17;;;;;;;35.97;11.73;;;3.00;99.90;;;;;;4735230;30;20048;-80
2021/03/01 04:18:45;;;;;;;24.77;10.30;;;3.00;99.90;;;;;;4729014;30;20049;-80
2021/03/01 04:21:14;;;;;;;25.90;11.43;;;3.00;99.90;;;;;;4720993;30;20056;-80
2021/03/01 04:23:42;;;;;;;22.40;10.02;;;3.00;99.90;;;;;;4712809;30;20171;-79
2021/03/01 04:26:08;;;;;;;19.13;10.65;;;2.90;99.90;;;;;;4713273;30;20132;-79
2021/03/01 04:28:35;;;;;;;23.33;10.93;;;3.00;99.90;;;;;;4719663;30;20178;-79
2021/03/01 04:31:07;;;;;;;18.50;10.15;;;2.90;99.90;;;;;;4714197;30;20060;-79
2021/03/01 04:33:35;;;;;;;20.85;10.63;;;3.00;99.90;;;;;;4714415;30;20163;-79
2021/03/01 04:36:01;;;;;;;20.42;10.55;;;2.90;99.90;;;;;;4718675;30;20036;-79
2021/03/01 04:38:28;;;;;;;17.10;9.30;;;3.00;99.90;;;;;;4711611;30;20490;-79
2021/03/01 04:40:54;;;;;;;19.40;9.88;;;2.90;99.90;;;;;;4719097;30;20056;-79
2021/03/01 04:43:22;;;;;;;19.67;10.73;;;2.90;99.90;;;;;;4718905;30;20049;-79
2021/03/01 04:45:51;;;;;;;19.25;10.02;;;2.90;99.90;;;;;;4714577;30;20132;-78
2021/03/01 04:48:17;;;;;;;18.23;9.02;;;2.90;99.90;;;;;;4712284;30;20045;-79
2021/03/01 04:50:47;;;;;;;18.70;9.50;;;2.80;99.90;;;;;;4720307;30;20052;-79
2021/03/01 04:53:14;;;;;;;20.92;9.85;;;2.90;99.90;;;;;;4719363;30;20131;-79
2021/03/01 04:55:40;;;;;;;18.30;9.63;;;2.80;99.90;;;;;;4722003;30;20489;-79
2021/03/01 04:58:07;;;;;;;15.95;9.45;;;2.90;99.90;;;;;;4721348;30;20049;-79
2021/03/01 05:00:35;;;;;;;19.48;9.45;;;2.90;99.90;;;;;;4713323;30;20045;-79
2021/03/01 05:03:02;;;;;;;20.85;9.80;;;3.00;99.90;;;;;;4718059;30;20045;-79
2021/03/01 05:05:27;;;;;;;16.50;9.30;;;3.00;99.90;;;;;;4716635;30;20037;-79
2021/03/01 05:11:36;;;;;;;17.05;9.75;;;3.00;99.90;;;;;;4731331;30;20561;-79
2021/03/01 05:14:04;;;;;;;16.65;9.65;;;3.10;99.90;;;;;;4732868;30;20049;-79
2021/03/01 05:16:30;;;;;;;16.80;9.27;;;3.00;99.90;;;;;;4717248;30;20049;-79
2021/03/01 05:18:57;;;;;;;20.27;10.18;;;3.00;99.90;;;;;;4719016;30;20516;-79
2021/03/01 05:21:23;;;;;;;16.85;9.70;;;3.00;99.90;;;;;;4715250;30;20052;-79
2021/03/01 05:23:49;;;;;;;19.30;9.70;;;3.00;99.90;;;;;;4719608;30;20049;-79
2021/03/01 05:26:17;;;;;;;17.05;9.85;;;3.00;99.90;;;;;;4712179;30;20143;-79
2021/03/01 05:28:43;;;;;;;15.32;8.73;;;3.00;99.90;;;;;;4715847;30;20076;-79
2021/03/01 05:31:09;;;;;;;13.05;8.18;;;3.00;99.90;;;;;;4716088;30;20441;-79
2021/03/01 05:33:34;;;;;;;12.88;7.82;;;3.00;99.90;;;;;;4722262;30;20052;-79
2021/03/01 05:36:00;;;;;;;12.60;7.70;;;3.00;99.90;;;;;;4730618;30;20048;-79
2021/03/01 05:38:27;;;;;;;11.10;7.20;;;3.00;99.90;;;;;;4718883;30;20079;-79
2021/03/01 05:40:53;;;;;;;10.40;7.47;;;3.00;99.90;;;;;;4729677;30;20045;-79
2021/03/01 05:43:26;;;;;;;9.70;6.65;;;3.00;99.90;;;;;;4721124;30;20056;-79
2021/03/01 05:45:52;;;;;;;11.55;7.47;;;3.00;99.90;;;;;;4733400;30;20040;-79
2021/03/01 05:48:21;;;;;;;10.90;6.93;;;3.00;99.90;;;;;;4718795;30;20417;-79
2021/03/01 05:50:52;;;;;;;11.40;7.55;;;3.00;99.90;;;;;;4716144;30;20602;-79
2021/03/01 05:53:21;;;;;;;11.70;7.88;;;3.00;99.90;;;;;;4716134;30;20111;-79
2021/03/01 05:55:49;;;;;;;13.05;8.43;;;3.10;99.90;;;;;;4718833;30;20051;-79
2021/03/01 05:58:16;;;;;;;12.02;8.23;;;3.10;99.90;;;;;;4737535;30;20044;-79
2021/03/01 06:00:43;;;;;;;15.10;8.70;;;3.10;99.90;;;;;;4714164;30;20060;-79
2021/03/01 06:03:09;;;;;;;12.10;7.82;;;3.10;99.90;;;;;;4731383;30;20402;-79
2021/03/01 06:05:34;;;;;;;14.20;8.07;;;3.20;99.90;;;;;;4732373;30;20055;-79
2021/03/01 06:08:00;;;;;;;14.05;8.13;;;3.20;99.90;;;;;;4713785;30;20061;-79
2021/03/01 06:10:29;;;;;;;14.35;8.23;;;3.20;99.90;;;;;;4734317;30;20573;-80
2021/03/01 06:12:55;;;;;;;13.88;8.32;;;3.50;99.90;;;;;;4713634;30;20056;-78
2021/03/01 06:15:22;;;;;;;17.08;9.15;;;3.20;99.90;;;;;;4708989;30;20053;-78
2021/03/01 06:18:10;;;;;;;19.10;9.45;;;3.30;99.90;;;;;;4709475;30;20057;-78
2021/03/01 06:20:36;;;;;;;23.00;9.48;;;3.30;99.90;;;;;;4710310;30;20566;-78
2021/03/01 06:23:03;;;;;;;26.17;10.93;;;3.30;99.90;;;;;;4713232;30;20056;-78
2021/03/01 06:25:30;;;;;;;31.40;11.52;;;3.30;99.90;;;;;;4707087;30;20044;-78
2021/03/01 06:27:58;;;;;;;37.03;11.77;;;3.30;99.90;;;;;;4716561;30;20053;-78
2021/03/01 06:30:25;;;;;;;38.38;13.38;;;3.30;99.90;;;;;;4714917;30;20045;-78
2021/03/01 06:33:15;;;;;;;38.92;12.73;;;3.40;99.90;;;;;;4715363;30;20261;-78
2021/03/01 06:35:51;;;;;;;39.17;13.85;;;3.40;99.90;;;;;;4698922;30;20929;-78
2021/03/01 06:38:22;;;;;;;48.28;14.60;;;3.50;99.90;;;;;;4713381;30;20594;-78
2021/03/01 06:41:19;;;;;;;55.58;15.65;;;3.50;99.90;;;;;;4700165;30;20459;-75
2021/03/01 06:44:01;;;;;;;68.97;17.00;;;3.60;99.90;;;;;;4718070;30;20123;-75
2021/03/01 06:46:29;;;;;;;70.75;16.58;;;3.60;99.90;;;;;;4700884;30;20518;-76
2021/03/01 06:48:55;;;;;;;85.95;18.40;;;3.60;99.90;;;;;;4718578;30;20117;-77
2021/03/01 06:51:21;;;;;;;78.63;18.55;;;3.60;99.90;;;;;;4717744;30;20052;-78
2021/03/01 06:53:58;;;;;;;76.25;18.45;;;3.70;99.90;;;;;;4696926;30;20576;-79
2021/03/01 06:56:36;;;;;;;66.47;17.30;;;3.70;99.90;;;;;;4696827;30;20044;-78
2021/03/01 06:59:13;;;;;;;63.47;18.08;;;3.90;99.90;;;;;;4715234;30;20107;-76
2021/03/01 07:01:49;;;;;;;57.30;18.23;;;3.90;99.90;;;;;;4698121;30;20056;-76
2021/03/01 07:04:55;;;;;;;57.55;17.25;;;3.90;99.90;;;;;;4697811;30;20375;-77
2021/03/01 07:07:36;;;;;;;90.80;17.88;;;3.90;99.90;;;;;;4692579;30;20052;-78
2021/03/01 07:10:07;;;;;;;68.30;17.70;;;3.90;99.90;;;;;;4708012;30;20596;-76
2021/03/01 07:12:37;;;;;;;93.88;20.70;;;4.00;99.90;;;;;;4715401;30;20577;-78
2021/03/01 07:15:12;;;;;;;112.75;19.75;;;4.00;99.90;;;;;;4712649;30;20570;-77
2021/03/01 07:17:40;;;;;;;116.50;19.90;;;4.00;99.90;;;;;;4712478;30;20049;-79
2021/03/01 07:20:08;;;;;;;94.95;20.60;;;4.00;99.90;;;;;;4712178;30;20045;-77
2021/03/01 07:22:37;;;;;;;108.88;21.40;;;4.10;99.90;;;;;;4714128;30;20072;-78
2021/03/01 07:25:05;;;;;;;109.40;21.48;;;4.10;99.90;;;;;;4713103;30;20049;-78
2021/03/01 07:27:38;;;;;;;132.55;20.45;;;4.10;99.90;;;;;;4712711;30;20430;-79
2021/03/01 07:30:06;;;;;;;120.95;20.30;;;4.10;99.90;;;;;;4712689;30;20049;-79
2021/03/01 07:32:33;;;;;;;106.10;20.15;;;4.10;99.90;;;;;;4713688;30;20070;-81
2021/03/01 07:35:00;;;;;;;124.40;18.13;;;4.10;99.90;;;;;;4718564;30;20053;-79
2021/03/01 07:37:26;;;;;;;92.22;19.30;;;4.10;99.90;;;;;;4718663;30;20499;-79
2021/03/01 07:39:53;;;;;;;71.28;18.50;;;4.20;99.90;;;;;;4714342;30;20067;-78
2021/03/01 07:42:19;;;;;;;87.95;17.77;;;4.20;99.90;;;;;;4717177;30;20045;-76
2021/03/01 07:44:47;;;;;;;63.80;18.13;;;4.40;99.90;;;;;;4712945;30;20725;-81
2021/03/01 07:47:13;;;;;;;83.28;17.10;;;4.40;99.90;;;;;;4711284;30;20057;-77
2021/03/01 07:49:48;;;;;;;73.30;18.13;;;4.40;99.90;;;;;;4712219;30;20114;-79
2021/03/01 07:52:20;;;;;;;102.63;18.50;;;4.50;99.90;;;;;;4712569;30;20057;-78
2021/03/01 07:55:00;;;;;;;118.28;18.58;;;4.40;99.90;;;;;;4694811;30;20530;-79
2021/03/01 07:57:27;;;;;;;91.57;19.92;;;4.40;99.90;;;;;;4710932;30;20139;-78
2021/03/01 07:59:54;;;;;;;83.97;20.75;;;4.50;99.90;;;;;;4717580;30;20465;-78
2021/03/01 08:02:23;;;;;;;95.82;21.92;;;4.60;99.90;;;;;;4711289;30;20542;-78
2021/03/01 08:04:50;;;;;;;102.13;20.80;;;4.70;99.90;;;;;;4717310;30;20114;-77
2021/03/01 08:07:17;;;;;;;69.20;19.10;;;4.70;99.90;;;;;;4710024;30;20065;-78
2021/03/01 08:09:53;;;;;;;80.15;16.35;;;4.60;99.90;;;;;;4712446;30;20409;-78
2021/03/01 08:12:59;;;;;;;49.38;15.07;;;4.80;99.90;;;;;;4711981;30;20060;-80
2021/03/01 08:15:35;;;;;;;35.50;8.95;;;4.80;99.90;;;;;;4688749;30;20107;-79
2021/03/01 08:18:02;;;;;;;37.70;10.50;;;4.70;99.90;;;;;;4694278;30;20144;-78
2021/03/01 08:20:34;;;;;;;36.10;9.82;;;4.80;99.90;;;;;;4694135;30;20819;-78
2021/03/01 08:23:02;;;;;;;30.90;10.00;;;4.80;99.90;;;;;;4678662;30;20065;-79
2021/03/01 08:25:44;;;;;;;28.13;8.45;;;4.80;99.90;;;;;;4693379;30;20081;-79
2021/03/01 08:28:35;;;;;;;26.45;9.18;;;4.80;99.90;;;;;;4686238;30;20057;-77
2021/03/01 08:31:10;;;;;;;23.50;8.90;;;4.80;99.90;;;;;;4687191;30;20100;-77
2021/03/01 08:33:36;;;;;;;24.13;8.93;;;4.80;99.90;;;;;;4670173;30;20120;-77
2021/03/01 08:36:01;;;;;;;22.10;8.18;;;4.90;99.90;;;;;;4684972;30;20217;-77
2021/03/01 08:38:42;;;;;;;30.05;8.13;;;4.90;99.90;;;;;;4696270;30;20057;-77
2021/03/01 08:41:09;;;;;;;22.98;8.95;;;4.90;99.90;;;;;;4707085;30;20061;-76
2021/03/01 08:43:37;;;;;;;21.10;8.45;;;4.90;99.90;;;;;;4692051;30;20117;-77
2021/03/01 08:46:21;;;;;;;15.70;7.25;;;5.00;99.90;;;;;;4692632;30;20073;-77
2021/03/01 08:48:49;;;;;;;13.82;6.97;;;5.10;99.90;;;;;;4700181;30;20093;-76
2021/03/01 08:51:17;;;;;;;12.43;6.57;;;5.20;99.90;;;;;;4685838;30;20096;-77
2021/03/01 08:53:43;;;;;;;12.23;6.45;;;5.30;99.90;;;;;;4706458;30;20053;-76
2021/03/01 08:56:18;;;;;;;10.75;5.70;;;5.30;99.90;;;;;;4719010;30;20454;-77
2021/03/01 08:58:44;;;;;;;12.27;5.53;;;5.30;99.90;;;;;;4709932;30;20065;-77
2021/03/01 09:01:10;;;;;;;12.18;6.05;;;5.40;99.90;;;;;;4722597;30;20119;-77
2021/03/01 09:03:37;;;;;;;8.80;5.00;;;5.50;99.90;;;;;;4710684;30;20065;-77
2021/03/01 09:06:09;;;;;;;8.18;4.90;;;5.70;99.90;;;;;;4709486;30;20119;-77
2021/03/01 09:08:43;;;;;;;9.48;5.00;;;5.60;99.90;;;;;;4710114;30;20045;-77
2021/03/01 09:11:31;;;;;;;12.27;5.90;;;5.70;99.90;;;;;;4717382;30;20125;-77
2021/03/01 09:14:02;;;;;;;12.50;5.70;;;5.60;99.90;;;;;;4719189;30;20098;-76
2021/03/01 09:16:30;;;;;;;10.07;4.30;;;5.60;99.90;;;;;;4726478;30;20547;-78
2021/03/01 09:19:08;;;;;;;10.57;4.82;;;5.60;99.90;;;;;;4719778;30;20073;-77
2021/03/01 09:21:39;;;;;;;7.72;4.40;;;5.60;99.90;;;;;;4714163;30;20060;-78
2021/03/01 09:24:05;;;;;;;11.43;5.18;;;5.60;99.90;;;;;;4717472;30;20505;-78
2021/03/01 09:26:38;;;;;;;10.18;4.30;;;5.70;99.90;;;;;;4729888;30;20528;-79
2021/03/01 09:29:09;;;;;;;10.20;4.15;;;5.70;99.90;;;;;;4732816;30;20468;-80
2021/03/01 09:31:40;;;;;;;11.23;4.47;;;5.70;99.90;;;;;;4714179;30;20048;-80
2021/03/01 09:34:10;;;;;;;13.77;5.50;;;5.70;99.90;;;;;;4713880;30;20801;-80
2021/03/01 09:36:37;;;;;;;10.57;5.72;;;5.70;99.90;;;;;;4686263;30;20068;-77
2021/03/01 09:39:06;;;;;;;14.05;5.68;;;5.60;99.90;;;;;;4712662;30;20413;-78
2021/03/01 09:41:34;;;;;;;14.45;6.38;;;5.60;99.90;;;;;;4712348;30;20053;-79
2021/03/01 09:44:01;;;;;;;13.30;6.10;;;5.70;99.90;;;;;;4712530;30;20509;-81
2021/03/01 09:46:28;;;;;;;9.40;4.70;;;5.80;99.90;;;;;;4728405;30;20045;-79
2021/03/01 09:49:00;;;;;;;8.38;4.05;;;6.20;99.90;;;;;;4712464;30;20076;-82
2021/03/01 09:51:28;;;;;;;9.43;4.00;;;6.00;99.90;;;;;;4718119;30;20137;-81
2021/03/01 09:53:54;;;;;;;7.03;3.42;;;6.10;99.90;;;;;;4716280;30;20497;-80
2021/03/01 09:56:20;;;;;;;8.77;3.50;;;6.20;99.90;;;;;;4732273;30;20059;-79
2021/03/01 09:58:46;;;;;;;7.88;3.53;;;6.10;99.90;;;;;;4698759;30;20501;-78
2021/03/01 10:01:18;;;;;;;5.47;3.28;;;6.20;99.90;;;;;;4714550;30;20130;-79
2021/03/01 10:03:47;;;;;;;9.30;5.45;;;6.20;99.90;;;;;;4715157;30;20465;-80
2021/03/01 10:06:15;;;;;;;11.35;4.75;;;6.20;99.90;;;;;;4726283;30;20063;-79
2021/03/01 10:08:42;;;;;;;10.05;4.28;;;6.20;99.90;;;;;;4739979;30;20063;-80
2021/03/01 10:11:22;;;;;;;13.50;6.85;;;6.10;99.90;;;;;;4721920;30;20417;-80
2021/03/01 10:13:48;;;;;;;9.57;5.40;;;6.20;99.90;;;;;;4703846;30;20066;-82
2021/03/01 10:16:27;;;;;;;8.30;4.65;;;6.20;99.90;;;;;;4717392;30;20076;-78
2021/03/01 10:18:53;;;;;;;8.02;4.35;;;6.30;99.90;;;;;;4725286;30;20072;-78
2021/03/01 10:21:30;;;;;;;10.82;4.70;;;6.30;99.90;;;;;;4713883;30;20048;-79
2021/03/01 10:24:07;;;;;;;13.43;5.22;;;6.30;99.90;;;;;;4718224;30;20516;-82
2021/03/01 10:26:49;;;;;;;13.60;6.95;;;6.20;99.90;;;;;;4714191;30;20516;-80
2021/03/01 10:29:15;;;;;;;13.45;7.25;;;6.30;99.90;;;;;;4714136;30;20111;-80
2021/03/01 10:31:42;;;;;;;15.52;7.32;;;6.20;99.90;;;;;;4713624;30;20506;-81
2021/03/01 10:34:13;;;;;;;15.70;8.25;;;6.40;99.90;;;;;;4712918;30;20053;-81
2021/03/01 10:36:55;;;;;;;14.25;7.93;;;6.30;99.90;;;;;;4697828;30;20068;-81
2021/03/01 10:39:32;;;;;;;17.58;10.50;;;6.40;99.90;;;;;;4727284;30;20062;-81
2021/03/01 10:42:03;;;;;;;15.57;7.30;;;6.30;99.90;;;;;;4713011;30;20409;-82
2021/03/01 10:44:37;;;;;;;10.98;5.88;;;6.30;99.90;;;;;;4726871;30;20498;-81
2021/03/01 10:47:13;;;;;;;15.45;7.22;;;6.30;99.90;;;;;;4720064;30;20041;-79
2021/03/01 10:49:41;;;;;;;14.50;6.28;;;6.40;99.90;;;;;;4712396;30;20065;-79
2021/03/01 10:52:08;;;;;;;13.98;7.18;;;6.60;99.90;;;;;;4711486;30;20061;-77
2021/03/01 10:54:36;;;;;;;12.05;6.43;;;6.70;99.90;;;;;;4730102;30;20060;-79
2021/03/01 10:57:03;;;;;;;11.27;5.50;;;6.90;99.90;;;;;;4726385;30;20052;-79
2021/03/01 10:59:29;;;;;;;10.63;6.05;;;7.10;99.90;;;;;;4714417;30;20068;-80
2021/03/01 11:01:54;;;;;;;10.38;6.22;;;7.20;99.90;;;;;;4714387;30;20419;-80
2021/03/01 11:04:20;;;;;;;13.82;6.00;;;7.10;99.90;;;;;;4714878;30;20227;-80
2021/03/01 11:06:51;;;;;;;8.73;5.10;;;7.00;99.90;;;;;;4715357;30;20052;-80
2021/03/01 11:09:18;;;;;;;10.50;5.05;;;7.00;99.90;;;;;;4713061;30;20061;-80
2021/03/01 11:11:45;;;;;;;10.65;5.00;;;6.90;99.90;;;;;;4720987;30;20053;-81
2021/03/01 11:14:12;;;;;;;11.88;5.32;;;7.10;99.90;;;;;;4719996;30;20141;-80
2021/03/01 11:16:38;;;;;;;8.40;5.30;;;7.00;99.90;;;;;;4713352;30;20069;-79
2021/03/01 11:19:05;;;;;;;9.15;5.10;;;7.00;99.90;;;;;;4713577;30;20115;-80
2021/03/01 11:21:32;;;;;;;8.48;5.65;;;7.20;99.90;;;;;;4713715;30;20087;-80
2021/03/01 11:23:58;;;;;;;9.50;5.38;;;7.10;99.90;;;;;;4713794;30;20064;-80
2021/03/01 11:26:24;;;;;;;8.05;4.38;;;7.20;99.90;;;;;;4712824;30;20528;-80
2021/03/01 11:28:50;;;;;;;11.23;4.28;;;7.00;99.90;;;;;;4713388;30;20056;-80
2021/03/01 11:31:17;;;;;;;6.97;3.70;;;7.10;99.90;;;;;;4727488;30;20529;-80
2021/03/01 11:33:43;;;;;;;6.45;3.80;;;7.30;99.90;;;;;;4712168;30;20203;-81
2021/03/01 11:36:09;;;;;;;5.93;3.58;;;7.50;99.90;;;;;;4713086;30;20606;-80
2021/03/01 11:38:35;;;;;;;9.77;3.35;;;7.60;99.90;;;;;;4727268;30;20061;-81
2021/03/01 11:41:01;;;;;;;9.20;3.28;;;7.80;99.90;;;;;;4698246;30;20517;-80
2021/03/01 11:43:27;;;;;;;7.07;3.00;;;7.90;99.90;;;;;;4712288;30;20178;-78
2021/03/01 11:45:53;;;;;;;6.85;3.05;;;8.00;99.90;;;;;;4713100;30;20061;-78
2021/03/01 11:48:19;;;;;;;6.07;2.83;;;8.10;99.90;;;;;;4713100;30;20075;-78
2021/03/01 11:50:48;;;;;;;7.28;3.50;;;8.00;99.90;;;;;;4698587;30;20191;-80
2021/03/01 11:53:16;;;;;;;10.32;3.20;;;8.00;99.90;;;;;;4712096;30;20053;-79
2021/03/01 11:55:43;;;;;;;6.85;3.70;;;8.00;99.90;;;;;;4712168;30;20128;-79
2021/03/01 11:58:09;;;;;;;9.68;5.53;;;8.20;99.90;;;;;;4719451;30;20049;-78
2021/03/01 12:00:35;;;;;;;6.43;3.88;;;8.40;99.90;;;;;;4718782;30;20067;-79
2021/03/01 12:03:02;;;;;;;6.15;3.22;;;8.60;99.90;;;;;;4715615;30;20131;-79
2021/03/01 12:05:28;;;;;;;4.75;3.30;;;8.80;99.90;;;;;;4697041;30;20084;-81
2021/03/01 12:07:53;;;;;;;5.38;3.08;;;8.80;99.90;;;;;;4717308;30;20773;-79
2021/03/01 12:10:19;;;;;;;6.68;3.80;;;9.00;99.90;;;;;;4714394;30;20064;-82
2021/03/01 12:12:47;;;;;;;7.18;3.83;;;9.20;99.90;;;;;;4716513;30;20090;-82
2021/03/01 12:15:13;;;;;;;9.18;4.15;;;8.90;99.90;;;;;;4719108;30;20069;-80
2021/03/01 12:17:38;;;;;;;7.45;4.35;;;8.90;99.90;;;;;;4735279;30;20049;-79
2021/03/01 12:20:05;;;;;;;5.80;4.00;;;8.70;99.90;;;;;;4728548;30;20112;-80
2021/03/01 12:22:31;;;;;;;6.10;3.60;;;8.90;99.90;;;;;;4728590;30;20143;-80
2021/03/01 12:24:57;;;;;;;7.63;3.95;;;9.10;99.90;;;;;;4731270;30;20559;-81
2021/03/01 12:27:23;;;;;;;6.88;3.58;;;8.90;99.90;;;;;;4718986;30;20047;-77
2021/03/01 12:29:51;;;;;;;9.15;3.65;;;9.00;99.90;;;;;;4728815;30;20036;-81
2021/03/01 12:32:17;;;;;;;5.00;3.15;;;9.20;99.90;;;;;;4712834;30;20110;-79
2021/03/01 12:34:42;;;;;;;5.28;3.70;;;9.40;99.90;;;;;;4710910;30;20061;-79
2021/03/01 12:37:08;;;;;;;6.97;3.65;;;9.30;99.90;;;;;;4714627;30;20083;-77
2021/03/01 12:39:38;;;;;;;6.28;3.30;;;9.30;99.90;;;;;;4711834;30;20202;-82
2021/03/01 12:42:05;;;;;;;4.80;2.95;;;9.40;99.90;;;;;;4722751;30;20049;-81
2021/03/01 12:44:32;;;;;;;3.90;2.80;;;9.50;98.00;;;;;;4701114;30;20065;-82
2021/03/01 12:46:58;;;;;;;5.57;3.08;;;9.40;99.10;;;;;;4736945;30;20068;-80
2021/03/01 12:49:24;;;;;;;4.97;3.20;;;9.60;98.10;;;;;;4715722;30;20092;-82
2021/03/01 12:51:50;;;;;;;7.43;5.25;;;9.50;98.40;;;;;;4736847;30;20497;-82
2021/03/01 12:54:17;;;;;;;9.18;5.63;;;9.40;98.40;;;;;;4735053;30;20060;-81
2021/03/01 12:56:43;;;;;;;6.10;4.50;;;9.90;98.90;;;;;;4719414;30;20063;-81